sensor_id;sensor_type;location;lat;lon;timestamp;temperature;humidity
3069;DHT22;1545;51.728;8.796;2023-04-07T00:00:52;8.10;86.30
3069;DHT22;1545;51.728;8.796;2023-04-07T00:03:17;8.00;86.40
3069;DHT22;1545;51.728;8.796;2023-04-07T00:05:43;8.00;86.60
3069;DHT22;1545;51.728;8.796;2023-04-07T00:08:08;7.90;87.00
3069;DHT22;1545;51.728;8.796;2023-04-07T00:10:34;7.80;87.10
3069;DHT22;1545;51.728;8.796;2023-04-07T00:12:59;7.80;87.40
3069;DHT22;1545;51.728;8.796;2023-04-07T00:15:25;7.80;87.60
3069;DHT22;1545;51.728;8.796;2023-04-07T00:17:51;7.70;87.80
3069;DHT22;1545;51.728;8.796;2023-04-07T00:20:16;7.70;88.10
3069;DHT22;1545;51.728;8.796;2023-04-07T00:22:42;7.60;88.50
3069;DHT22;1545;51.728;8.796;2023-04-07T00:25:07;7.60;89.20
3069;DHT22;1545;51.728;8.796;2023-04-07T00:27:33;7.50;89.50
3069;DHT22;1545;51.728;8.796;2023-04-07T00:29:58;7.50;90.10
3069;DHT22;1545;51.728;8.796;2023-04-07T00:32:24;7.50;90.60
3069;DHT22;1545;51.728;8.796;2023-04-07T00:34:49;7.50;90.60
3069;DHT22;1545;51.728;8.796;2023-04-07T00:37:15;7.40;90.50
3069;DHT22;1545;51.728;8.796;2023-04-07T00:39:40;7.30;91.00
3069;DHT22;1545;51.728;8.796;2023-04-07T00:42:06;7.30;91.20
3069;DHT22;1545;51.728;8.796;2023-04-07T00:44:32;7.40;91.40
3069;DHT22;1545;51.728;8.796;2023-04-07T00:46:58;7.30;91.70
3069;DHT22;1545;51.728;8.796;2023-04-07T00:49:25;7.30;91.60
3069;DHT22;1545;51.728;8.796;2023-04-07T00:51:53;7.30;91.70
3069;DHT22;1545;51.728;8.796;2023-04-07T00:54:18;7.30;91.50
3069;DHT22;1545;51.728;8.796;2023-04-07T00:56:45;7.30;91.70
3069;DHT22;1545;51.728;8.796;2023-04-07T00:59:10;7.20;91.50
3069;DHT22;1545;51.728;8.796;2023-04-07T01:01:45;7.20;91.90
3069;DHT22;1545;51.728;8.796;2023-04-07T01:04:28;7.20;92.20
3069;DHT22;1545;51.728;8.796;2023-04-07T01:07:22;7.20;92.70
3069;DHT22;1545;51.728;8.796;2023-04-07T01:09:54;7.20;92.30
3069;DHT22;1545;51.728;8.796;2023-04-07T01:12:43;7.20;92.90
3069;DHT22;1545;51.728;8.796;2023-04-07T01:15:11;7.20;93.10
3069;DHT22;1545;51.728;8.796;2023-04-07T01:18:05;7.20;93.30
3069;DHT22;1545;51.728;8.796;2023-04-07T01:20:34;7.10;93.40
3069;DHT22;1545;51.728;8.796;2023-04-07T01:23:04;7.10;93.40
3069;DHT22;1545;51.728;8.796;2023-04-07T01:28:39;7.10;94.20
3069;DHT22;1545;51.728;8.796;2023-04-07T01:31:08;7.10;94.70
3069;DHT22;1545;51.728;8.796;2023-04-07T01:33:34;7.00;94.60
3069;DHT22;1545;51.728;8.796;2023-04-07T01:36:01;7.00;94.80
3069;DHT22;1545;51.728;8.796;2023-04-07T01:38:28;7.00;94.50
3069;DHT22;1545;51.728;8.796;2023-04-07T01:40:55;6.90;95.50
3069;DHT22;1545;51.728;8.796;2023-04-07T01:43:22;6.90;95.40
3069;DHT22;1545;51.728;8.796;2023-04-07T01:45:49;6.90;95.90
3069;DHT22;1545;51.728;8.796;2023-04-07T01:48:15;6.80;96.50
3069;DHT22;1545;51.728;8.796;2023-04-07T01:50:43;6.90;96.20
3069;DHT22;1545;51.728;8.796;2023-04-07T01:53:10;6.80;96.40
3069;DHT22;1545;51.728;8.796;2023-04-07T01:55:36;6.80;96.80
3069;DHT22;1545;51.728;8.796;2023-04-07T01:58:06;6.80;97.00
3069;DHT22;1545;51.728;8.796;2023-04-07T02:00:31;6.70;97.60
3069;DHT22;1545;51.728;8.796;2023-04-07T02:03:04;6.70;97.60
3069;DHT22;1545;51.728;8.796;2023-04-07T02:05:32;6.70;97.80
3069;DHT22;1545;51.728;8.796;2023-04-07T02:08:04;6.70;98.00
3069;DHT22;1545;51.728;8.796;2023-04-07T02:10:34;6.70;98.10
3069;DHT22;1545;51.728;8.796;2023-04-07T02:13:02;6.60;98.20
3069;DHT22;1545;51.728;8.796;2023-04-07T02:15:30;6.70;98.80
3069;DHT22;1545;51.728;8.796;2023-04-07T02:17:58;6.60;98.80
3069;DHT22;1545;51.728;8.796;2023-04-07T02:20:24;6.60;98.80
3069;DHT22;1545;51.728;8.796;2023-04-07T02:22:51;6.60;98.80
3069;DHT22;1545;51.728;8.796;2023-04-07T02:25:25;6.60;98.80
3069;DHT22;1545;51.728;8.796;2023-04-07T02:27:52;6.60;98.80
3069;DHT22;1545;51.728;8.796;2023-04-07T02:30:18;6.50;98.80
3069;DHT22;1545;51.728;8.796;2023-04-07T02:32:44;6.50;98.80
3069;DHT22;1545;51.728;8.796;2023-04-07T02:35:10;6.40;98.80
3069;DHT22;1545;51.728;8.796;2023-04-07T02:37:36;6.40;98.80
3069;DHT22;1545;51.728;8.796;2023-04-07T02:40:03;6.40;98.80
3069;DHT22;1545;51.728;8.796;2023-04-07T02:42:29;6.40;98.80
3069;DHT22;1545;51.728;8.796;2023-04-07T02:44:54;6.30;98.80
3069;DHT22;1545;51.728;8.796;2023-04-07T02:47:20;6.40;98.80
3069;DHT22;1545;51.728;8.796;2023-04-07T02:49:45;6.40;98.80
3069;DHT22;1545;51.728;8.796;2023-04-07T02:52:11;6.30;98.80
3069;DHT22;1545;51.728;8.796;2023-04-07T02:54:36;6.30;98.80
3069;DHT22;1545;51.728;8.796;2023-04-07T02:57:02;6.30;98.80
3069;DHT22;1545;51.728;8.796;2023-04-07T02:59:28;6.30;98.80
3069;DHT22;1545;51.728;8.796;2023-04-07T03:01:53;6.30;98.80
3069;DHT22;1545;51.728;8.796;2023-04-07T03:04:19;6.30;98.80
3069;DHT22;1545;51.728;8.796;2023-04-07T03:06:44;6.30;98.80
3069;DHT22;1545;51.728;8.796;2023-04-07T03:09:10;6.30;98.80
3069;DHT22;1545;51.728;8.796;2023-04-07T03:11:36;6.30;98.80
3069;DHT22;1545;51.728;8.796;2023-04-07T03:14:01;6.30;98.80
3069;DHT22;1545;51.728;8.796;2023-04-07T03:16:27;6.30;98.80
3069;DHT22;1545;51.728;8.796;2023-04-07T03:18:52;6.30;98.80
3069;DHT22;1545;51.728;8.796;2023-04-07T03:21:18;6.30;98.80
3069;DHT22;1545;51.728;8.796;2023-04-07T03:23:43;6.40;98.80
3069;DHT22;1545;51.728;8.796;2023-04-07T03:26:10;6.30;98.80
3069;DHT22;1545;51.728;8.796;2023-04-07T03:28:35;6.30;98.80
3069;DHT22;1545;51.728;8.796;2023-04-07T03:31:01;6.30;98.80
3069;DHT22;1545;51.728;8.796;2023-04-07T03:33:26;6.30;98.80
3069;DHT22;1545;51.728;8.796;2023-04-07T03:35:52;6.30;98.80
3069;DHT22;1545;51.728;8.796;2023-04-07T03:38:17;6.20;98.80
3069;DHT22;1545;51.728;8.796;2023-04-07T03:40:43;6.20;98.80
3069;DHT22;1545;51.728;8.796;2023-04-07T03:43:08;6.20;98.80
3069;DHT22;1545;51.728;8.796;2023-04-07T03:45:38;6.20;98.80
3069;DHT22;1545;51.728;8.796;2023-04-07T03:48:04;6.20;98.80
3069;DHT22;1545;51.728;8.796;2023-04-07T03:50:29;6.20;98.80
3069;DHT22;1545;51.728;8.796;2023-04-07T03:52:55;6.10;98.80
3069;DHT22;1545;51.728;8.796;2023-04-07T03:55:21;6.10;98.80
3069;DHT22;1545;51.728;8.796;2023-04-07T03:57:47;6.10;98.80
3069;DHT22;1545;51.728;8.796;2023-04-07T04:00:13;6.10;98.80
3069;DHT22;1545;51.728;8.796;2023-04-07T04:02:38;6.10;98.80
3069;DHT22;1545;51.728;8.796;2023-04-07T04:05:04;6.10;98.80
3069;DHT22;1545;51.728;8.796;2023-04-07T04:07:30;6.10;98.80
3069;DHT22;1545;51.728;8.796;2023-04-07T04:09:57;6.10;98.80
3069;DHT22;1545;51.728;8.796;2023-04-07T04:12:23;6.10;98.80
3069;DHT22;1545;51.728;8.796;2023-04-07T04:14:48;6.10;98.80
3069;DHT22;1545;51.728;8.796;2023-04-07T04:17:14;6.10;98.80
3069;DHT22;1545;51.728;8.796;2023-04-07T04:19:39;6.10;98.80
3069;DHT22;1545;51.728;8.796;2023-04-07T04:22:05;6.10;98.80
3069;DHT22;1545;51.728;8.796;2023-04-07T04:24:30;6.10;98.80
3069;DHT22;1545;51.728;8.796;2023-04-07T04:26:56;6.10;98.80
3069;DHT22;1545;51.728;8.796;2023-04-07T04:29:21;6.10;98.80
3069;DHT22;1545;51.728;8.796;2023-04-07T04:31:47;6.20;98.80
3069;DHT22;1545;51.728;8.796;2023-04-07T04:34:12;6.20;98.80
3069;DHT22;1545;51.728;8.796;2023-04-07T04:36:38;6.20;98.80
3069;DHT22;1545;51.728;8.796;2023-04-07T04:39:05;6.20;98.80
3069;DHT22;1545;51.728;8.796;2023-04-07T04:41:30;6.30;98.80
3069;DHT22;1545;51.728;8.796;2023-04-07T04:43:56;6.20;98.80
3069;DHT22;1545;51.728;8.796;2023-04-07T04:46:22;6.30;98.80
3069;DHT22;1545;51.728;8.796;2023-04-07T04:48:47;6.10;98.80
3069;DHT22;1545;51.728;8.796;2023-04-07T04:51:13;6.10;98.80
3069;DHT22;1545;51.728;8.796;2023-04-07T04:53:38;6.00;98.80
3069;DHT22;1545;51.728;8.796;2023-04-07T04:56:04;6.00;98.80
3069;DHT22;1545;51.728;8.796;2023-04-07T04:58:30;6.00;98.80
3069;DHT22;1545;51.728;8.796;2023-04-07T05:00:55;6.00;98.80
3069;DHT22;1545;51.728;8.796;2023-04-07T05:03:23;6.00;98.80
3069;DHT22;1545;51.728;8.796;2023-04-07T05:05:49;6.00;98.80
3069;DHT22;1545;51.728;8.796;2023-04-07T05:08:15;6.00;98.80
3069;DHT22;1545;51.728;8.796;2023-04-07T05:10:40;6.00;98.80
3069;DHT22;1545;51.728;8.796;2023-04-07T05:13:06;6.00;98.80
3069;DHT22;1545;51.728;8.796;2023-04-07T05:15:31;6.00;98.80
3069;DHT22;1545;51.728;8.796;2023-04-07T05:17:57;6.00;98.80
3069;DHT22;1545;51.728;8.796;2023-04-07T05:20:22;6.00;98.80
3069;DHT22;1545;51.728;8.796;2023-04-07T05:22:48;6.10;98.80
3069;DHT22;1545;51.728;8.796;2023-04-07T05:25:13;6.10;98.80
3069;DHT22;1545;51.728;8.796;2023-04-07T05:27:39;6.20;98.80
3069;DHT22;1545;51.728;8.796;2023-04-07T05:30:05;6.20;98.80
3069;DHT22;1545;51.728;8.796;2023-04-07T05:32:31;6.20;98.80
3069;DHT22;1545;51.728;8.796;2023-04-07T05:34:56;6.20;98.80
3069;DHT22;1545;51.728;8.796;2023-04-07T05:37:22;6.20;98.80
3069;DHT22;1545;51.728;8.796;2023-04-07T05:39:47;6.20;98.80
3069;DHT22;1545;51.728;8.796;2023-04-07T05:42:13;6.20;98.80
3069;DHT22;1545;51.728;8.796;2023-04-07T05:44:38;6.30;98.80
3069;DHT22;1545;51.728;8.796;2023-04-07T05:47:04;6.40;98.80
3069;DHT22;1545;51.728;8.796;2023-04-07T05:49:33;6.40;98.80
3069;DHT22;1545;51.728;8.796;2023-04-07T05:51:59;6.40;98.80
3069;DHT22;1545;51.728;8.796;2023-04-07T05:54:24;6.50;98.80
3069;DHT22;1545;51.728;8.796;2023-04-07T05:56:50;6.50;98.80
3069;DHT22;1545;51.728;8.796;2023-04-07T05:59:16;6.60;98.80
3069;DHT22;1545;51.728;8.796;2023-04-07T06:01:41;6.60;98.80
3069;DHT22;1545;51.728;8.796;2023-04-07T06:04:07;6.70;98.80
3069;DHT22;1545;51.728;8.796;2023-04-07T06:06:32;6.70;98.80
3069;DHT22;1545;51.728;8.796;2023-04-07T06:08:58;6.80;98.80
3069;DHT22;1545;51.728;8.796;2023-04-07T06:11:25;6.90;98.80
3069;DHT22;1545;51.728;8.796;2023-04-07T06:13:51;7.00;98.80
3069;DHT22;1545;51.728;8.796;2023-04-07T06:16:16;7.10;98.80
3069;DHT22;1545;51.728;8.796;2023-04-07T06:18:42;7.30;98.80
3069;DHT22;1545;51.728;8.796;2023-04-07T06:21:08;7.40;98.80
3069;DHT22;1545;51.728;8.796;2023-04-07T06:23:33;7.50;98.80
3069;DHT22;1545;51.728;8.796;2023-04-07T06:25:59;7.50;98.80
3069;DHT22;1545;51.728;8.796;2023-04-07T06:28:24;7.60;98.30
3069;DHT22;1545;51.728;8.796;2023-04-07T06:30:50;7.60;98.20
3069;DHT22;1545;51.728;8.796;2023-04-07T06:33:16;7.70;98.00
3069;DHT22;1545;51.728;8.796;2023-04-07T06:35:41;7.70;98.00
3069;DHT22;1545;51.728;8.796;2023-04-07T06:38:07;7.80;97.60
3069;DHT22;1545;51.728;8.796;2023-04-07T06:40:32;7.80;97.10
3069;DHT22;1545;51.728;8.796;2023-04-07T06:42:58;7.80;95.60
3069;DHT22;1545;51.728;8.796;2023-04-07T06:45:23;7.90;96.20
3069;DHT22;1545;51.728;8.796;2023-04-07T06:47:49;8.00;95.60
3069;DHT22;1545;51.728;8.796;2023-04-07T06:50:14;8.20;95.20
3069;DHT22;1545;51.728;8.796;2023-04-07T06:52:41;8.40;95.50
3069;DHT22;1545;51.728;8.796;2023-04-07T06:55:07;8.30;93.30
3069;DHT22;1545;51.728;8.796;2023-04-07T06:57:33;8.50;94.50
3069;DHT22;1545;51.728;8.796;2023-04-07T06:59:58;8.60;93.00
3069;DHT22;1545;51.728;8.796;2023-04-07T07:02:24;8.60;92.90
3069;DHT22;1545;51.728;8.796;2023-04-07T07:04:49;8.60;92.40
3069;DHT22;1545;51.728;8.796;2023-04-07T07:07:15;8.60;91.90
3069;DHT22;1545;51.728;8.796;2023-04-07T07:09:40;8.60;92.00
3069;DHT22;1545;51.728;8.796;2023-04-07T07:12:06;8.70;92.90
3069;DHT22;1545;51.728;8.796;2023-04-07T07:14:31;8.90;92.20
3069;DHT22;1545;51.728;8.796;2023-04-07T07:16:57;9.00;92.60
3069;DHT22;1545;51.728;8.796;2023-04-07T07:19:22;9.10;91.20
3069;DHT22;1545;51.728;8.796;2023-04-07T07:21:48;9.10;91.10
3069;DHT22;1545;51.728;8.796;2023-04-07T07:24:13;8.90;90.60
3069;DHT22;1545;51.728;8.796;2023-04-07T07:26:39;8.60;90.80
3069;DHT22;1545;51.728;8.796;2023-04-07T07:29:06;8.50;91.60
3069;DHT22;1545;51.728;8.796;2023-04-07T07:31:34;8.50;92.50
3069;DHT22;1545;51.728;8.796;2023-04-07T07:34:00;8.50;90.80
3069;DHT22;1545;51.728;8.796;2023-04-07T07:36:25;8.50;91.60
3069;DHT22;1545;51.728;8.796;2023-04-07T07:38:51;8.60;92.30
3069;DHT22;1545;51.728;8.796;2023-04-07T07:41:16;8.60;92.00
3069;DHT22;1545;51.728;8.796;2023-04-07T07:43:41;8.60;91.40
3069;DHT22;1545;51.728;8.796;2023-04-07T07:46:07;8.60;91.00
3069;DHT22;1545;51.728;8.796;2023-04-07T07:48:33;8.70;91.30
3069;DHT22;1545;51.728;8.796;2023-04-07T07:50:58;8.90;89.80
3069;DHT22;1545;51.728;8.796;2023-04-07T07:53:24;9.00;90.40
3069;DHT22;1545;51.728;8.796;2023-04-07T07:55:50;9.00;89.50
3069;DHT22;1545;51.728;8.796;2023-04-07T07:58:15;9.10;89.60
3069;DHT22;1545;51.728;8.796;2023-04-07T08:00:41;9.40;90.20
3069;DHT22;1545;51.728;8.796;2023-04-07T08:03:06;9.50;87.50
3069;DHT22;1545;51.728;8.796;2023-04-07T08:05:32;9.50;87.20
3069;DHT22;1545;51.728;8.796;2023-04-07T08:07:57;9.60;88.30
3069;DHT22;1545;51.728;8.796;2023-04-07T08:10:23;9.70;88.30
3069;DHT22;1545;51.728;8.796;2023-04-07T08:12:49;9.40;87.30
3069;DHT22;1545;51.728;8.796;2023-04-07T08:15:18;9.50;87.70
3069;DHT22;1545;51.728;8.796;2023-04-07T08:17:43;9.60;87.30
3069;DHT22;1545;51.728;8.796;2023-04-07T08:20:09;9.70;87.70
3069;DHT22;1545;51.728;8.796;2023-04-07T08:22:36;9.60;86.50
3069;DHT22;1545;51.728;8.796;2023-04-07T08:25:02;9.70;87.00
3069;DHT22;1545;51.728;8.796;2023-04-07T08:27:27;9.40;86.00
3069;DHT22;1545;51.728;8.796;2023-04-07T08:30:01;9.40;87.10
3069;DHT22;1545;51.728;8.796;2023-04-07T08:32:37;9.60;87.50
3069;DHT22;1545;51.728;8.796;2023-04-07T08:35:03;9.90;87.00
3069;DHT22;1545;51.728;8.796;2023-04-07T08:37:30;9.90;85.20
3069;DHT22;1545;51.728;8.796;2023-04-07T08:39:55;9.80;86.70
3069;DHT22;1545;51.728;8.796;2023-04-07T08:42:23;9.90;87.30
3069;DHT22;1545;51.728;8.796;2023-04-07T08:44:53;10.00;86.10
3069;DHT22;1545;51.728;8.796;2023-04-07T08:47:21;10.00;85.80
3069;DHT22;1545;51.728;8.796;2023-04-07T08:49:51;10.00;85.90
3069;DHT22;1545;51.728;8.796;2023-04-07T08:52:21;10.10;85.90
3069;DHT22;1545;51.728;8.796;2023-04-07T08:54:47;9.90;85.70
3069;DHT22;1545;51.728;8.796;2023-04-07T08:57:13;10.00;86.20
3069;DHT22;1545;51.728;8.796;2023-04-07T08:59:41;10.20;86.80
3069;DHT22;1545;51.728;8.796;2023-04-07T09:02:09;10.20;85.70
3069;DHT22;1545;51.728;8.796;2023-04-07T09:04:35;10.40;86.20
3069;DHT22;1545;51.728;8.796;2023-04-07T09:07:01;10.40;85.60
3069;DHT22;1545;51.728;8.796;2023-04-07T09:09:27;10.40;86.00
3069;DHT22;1545;51.728;8.796;2023-04-07T09:11:53;10.40;84.70
3069;DHT22;1545;51.728;8.796;2023-04-07T09:14:20;10.40;85.70
3069;DHT22;1545;51.728;8.796;2023-04-07T09:16:46;10.40;84.80
3069;DHT22;1545;51.728;8.796;2023-04-07T09:19:11;10.50;83.80
3069;DHT22;1545;51.728;8.796;2023-04-07T09:21:48;10.40;83.90
3069;DHT22;1545;51.728;8.796;2023-04-07T09:24:25;10.30;84.40
3069;DHT22;1545;51.728;8.796;2023-04-07T09:27:08;10.30;85.00
3069;DHT22;1545;51.728;8.796;2023-04-07T09:29:34;10.20;84.00
3069;DHT22;1545;51.728;8.796;2023-04-07T09:32:00;10.40;84.60
3069;DHT22;1545;51.728;8.796;2023-04-07T09:34:32;10.50;83.20
3069;DHT22;1545;51.728;8.796;2023-04-07T09:36:58;10.40;82.40
3069;DHT22;1545;51.728;8.796;2023-04-07T09:39:24;10.40;84.40
3069;DHT22;1545;51.728;8.796;2023-04-07T09:41:50;10.40;84.00
3069;DHT22;1545;51.728;8.796;2023-04-07T09:44:17;10.40;82.90
3069;DHT22;1545;51.728;8.796;2023-04-07T09:46:54;10.40;83.90
3069;DHT22;1545;51.728;8.796;2023-04-07T09:49:21;10.50;83.70
3069;DHT22;1545;51.728;8.796;2023-04-07T09:51:58;10.60;83.00
3069;DHT22;1545;51.728;8.796;2023-04-07T09:54:38;10.60;82.70
3069;DHT22;1545;51.728;8.796;2023-04-07T09:57:09;10.60;82.70
3069;DHT22;1545;51.728;8.796;2023-04-07T09:59:38;10.50;84.00
3069;DHT22;1545;51.728;8.796;2023-04-07T10:02:05;10.70;84.60
3069;DHT22;1545;51.728;8.796;2023-04-07T10:04:30;10.70;82.90
3069;DHT22;1545;51.728;8.796;2023-04-07T10:06:57;10.50;83.20
3069;DHT22;1545;51.728;8.796;2023-04-07T10:09:24;10.40;83.80
3069;DHT22;1545;51.728;8.796;2023-04-07T10:11:51;10.60;83.80
3069;DHT22;1545;51.728;8.796;2023-04-07T10:14:18;10.50;83.00
3069;DHT22;1545;51.728;8.796;2023-04-07T10:16:48;10.50;83.40
3069;DHT22;1545;51.728;8.796;2023-04-07T10:19:16;10.60;83.40
3069;DHT22;1545;51.728;8.796;2023-04-07T10:21:43;10.80;83.50
3069;DHT22;1545;51.728;8.796;2023-04-07T10:24:28;10.90;81.70
3069;DHT22;1545;51.728;8.796;2023-04-07T10:26:59;10.80;80.10
3069;DHT22;1545;51.728;8.796;2023-04-07T10:29:32;10.70;81.70
3069;DHT22;1545;51.728;8.796;2023-04-07T10:31:59;11.20;83.50
3069;DHT22;1545;51.728;8.796;2023-04-07T10:37:18;11.70;78.20
3069;DHT22;1545;51.728;8.796;2023-04-07T10:39:50;11.70;79.40
3069;DHT22;1545;51.728;8.796;2023-04-07T10:45:05;11.70;77.80
3069;DHT22;1545;51.728;8.796;2023-04-07T10:47:31;11.60;78.20
3069;DHT22;1545;51.728;8.796;2023-04-07T10:50:20;11.70;79.10
3069;DHT22;1545;51.728;8.796;2023-04-07T10:52:48;12.30;78.90
3069;DHT22;1545;51.728;8.796;2023-04-07T10:58:24;12.80;76.60
3069;DHT22;1545;51.728;8.796;2023-04-07T11:03:26;13.20;75.60
3069;DHT22;1545;51.728;8.796;2023-04-07T11:06:01;12.90;75.80
3069;DHT22;1545;51.728;8.796;2023-04-07T11:08:36;12.60;76.40
3069;DHT22;1545;51.728;8.796;2023-04-07T11:11:02;12.10;77.00
3069;DHT22;1545;51.728;8.796;2023-04-07T11:13:43;12.20;77.90
3069;DHT22;1545;51.728;8.796;2023-04-07T11:16:09;12.10;78.20
3069;DHT22;1545;51.728;8.796;2023-04-07T11:18:36;12.50;78.70
3069;DHT22;1545;51.728;8.796;2023-04-07T11:21:02;13.00;78.80
3069;DHT22;1545;51.728;8.796;2023-04-07T11:23:36;13.30;77.20
3069;DHT22;1545;51.728;8.796;2023-04-07T11:26:02;13.60;77.00
3069;DHT22;1545;51.728;8.796;2023-04-07T11:28:28;13.80;77.20
3069;DHT22;1545;51.728;8.796;2023-04-07T11:30:55;13.90;76.60
3069;DHT22;1545;51.728;8.796;2023-04-07T11:33:25;13.90;76.50
3069;DHT22;1545;51.728;8.796;2023-04-07T11:36:01;14.00;76.50
3069;DHT22;1545;51.728;8.796;2023-04-07T11:38:37;13.90;76.30
3069;DHT22;1545;51.728;8.796;2023-04-07T11:41:11;13.80;76.50
3069;DHT22;1545;51.728;8.796;2023-04-07T11:43:37;13.70;75.90
3069;DHT22;1545;51.728;8.796;2023-04-07T11:46:11;13.60;76.60
3069;DHT22;1545;51.728;8.796;2023-04-07T11:48:38;13.60;77.40
3069;DHT22;1545;51.728;8.796;2023-04-07T11:51:05;13.60;77.00
3069;DHT22;1545;51.728;8.796;2023-04-07T11:53:33;13.50;77.50
3069;DHT22;1545;51.728;8.796;2023-04-07T11:56:07;13.60;76.90
3069;DHT22;1545;51.728;8.796;2023-04-07T11:58:35;13.80;76.40
3069;DHT22;1545;51.728;8.796;2023-04-07T12:01:05;14.10;75.90
3069;DHT22;1545;51.728;8.796;2023-04-07T12:03:34;14.60;75.10
3069;DHT22;1545;51.728;8.796;2023-04-07T12:06:01;15.00;74.30
3069;DHT22;1545;51.728;8.796;2023-04-07T12:08:36;15.20;72.80
3069;DHT22;1545;51.728;8.796;2023-04-07T12:11:04;15.20;73.60
3069;DHT22;1545;51.728;8.796;2023-04-07T12:13:29;15.20;73.40
3069;DHT22;1545;51.728;8.796;2023-04-07T12:15:57;15.30;71.90
3069;DHT22;1545;51.728;8.796;2023-04-07T12:18:22;15.10;72.80
3069;DHT22;1545;51.728;8.796;2023-04-07T12:20:49;15.50;72.90
3069;DHT22;1545;51.728;8.796;2023-04-07T12:23:15;15.80;72.10
3069;DHT22;1545;51.728;8.796;2023-04-07T12:25:40;16.10;70.40
3069;DHT22;1545;51.728;8.796;2023-04-07T12:28:06;16.30;70.20
3069;DHT22;1545;51.728;8.796;2023-04-07T12:30:31;16.30;70.50
3069;DHT22;1545;51.728;8.796;2023-04-07T12:32:57;16.50;69.00
3069;DHT22;1545;51.728;8.796;2023-04-07T12:35:23;16.40;69.00
3069;DHT22;1545;51.728;8.796;2023-04-07T12:37:48;16.30;69.60
3069;DHT22;1545;51.728;8.796;2023-04-07T12:40:16;16.30;69.20
3069;DHT22;1545;51.728;8.796;2023-04-07T12:42:42;16.20;68.60
3069;DHT22;1545;51.728;8.796;2023-04-07T12:45:07;16.30;68.30
3069;DHT22;1545;51.728;8.796;2023-04-07T12:47:33;15.90;70.20
3069;DHT22;1545;51.728;8.796;2023-04-07T12:49:59;15.60;70.40
3069;DHT22;1545;51.728;8.796;2023-04-07T12:52:24;15.60;67.80
3069;DHT22;1545;51.728;8.796;2023-04-07T12:54:50;15.60;69.20
3069;DHT22;1545;51.728;8.796;2023-04-07T12:57:16;15.70;71.20
3069;DHT22;1545;51.728;8.796;2023-04-07T12:59:42;15.80;69.90
3069;DHT22;1545;51.728;8.796;2023-04-07T13:02:07;15.70;70.00
3069;DHT22;1545;51.728;8.796;2023-04-07T13:04:33;15.60;70.40
3069;DHT22;1545;51.728;8.796;2023-04-07T13:06:59;15.10;69.10
3069;DHT22;1545;51.728;8.796;2023-04-07T13:09:27;14.60;69.80
3069;DHT22;1545;51.728;8.796;2023-04-07T13:11:52;14.60;70.90
3069;DHT22;1545;51.728;8.796;2023-04-07T13:14:18;14.70;70.70
3069;DHT22;1545;51.728;8.796;2023-04-07T13:16:43;14.90;69.80
3069;DHT22;1545;51.728;8.796;2023-04-07T13:19:09;15.10;70.40
3069;DHT22;1545;51.728;8.796;2023-04-07T13:21:34;15.40;69.00
3069;DHT22;1545;51.728;8.796;2023-04-07T13:24:00;15.50;66.80
3069;DHT22;1545;51.728;8.796;2023-04-07T13:26:26;15.50;68.30
3069;DHT22;1545;51.728;8.796;2023-04-07T13:28:52;15.80;69.20
3069;DHT22;1545;51.728;8.796;2023-04-07T13:31:18;16.20;67.70
3069;DHT22;1545;51.728;8.796;2023-04-07T13:33:46;16.20;65.80
3069;DHT22;1545;51.728;8.796;2023-04-07T13:36:11;16.10;64.40
3069;DHT22;1545;51.728;8.796;2023-04-07T13:38:37;15.50;63.50
3069;DHT22;1545;51.728;8.796;2023-04-07T13:41:02;14.50;72.40
3069;DHT22;1545;51.728;8.796;2023-04-07T13:43:28;14.20;74.30
3069;DHT22;1545;51.728;8.796;2023-04-07T13:45:54;13.90;73.00
3069;DHT22;1545;51.728;8.796;2023-04-07T13:48:21;13.90;72.20
3069;DHT22;1545;51.728;8.796;2023-04-07T13:50:46;13.90;71.60
3069;DHT22;1545;51.728;8.796;2023-04-07T13:53:12;13.90;67.60
3069;DHT22;1545;51.728;8.796;2023-04-07T13:55:38;13.80;68.10
3069;DHT22;1545;51.728;8.796;2023-04-07T13:58:03;13.80;69.50
3069;DHT22;1545;51.728;8.796;2023-04-07T14:00:29;13.90;70.60
3069;DHT22;1545;51.728;8.796;2023-04-07T14:02:54;14.00;70.70
3069;DHT22;1545;51.728;8.796;2023-04-07T14:05:21;13.90;69.70
3069;DHT22;1545;51.728;8.796;2023-04-07T14:07:46;13.80;69.00
3069;DHT22;1545;51.728;8.796;2023-04-07T14:10:12;13.70;68.60
3069;DHT22;1545;51.728;8.796;2023-04-07T14:12:37;13.70;68.40
3069;DHT22;1545;51.728;8.796;2023-04-07T14:15:03;13.60;69.20
3069;DHT22;1545;51.728;8.796;2023-04-07T14:17:29;13.70;68.20
3069;DHT22;1545;51.728;8.796;2023-04-07T14:19:55;13.70;67.70
3069;DHT22;1545;51.728;8.796;2023-04-07T14:22:21;13.70;69.40
3069;DHT22;1545;51.728;8.796;2023-04-07T14:24:46;13.60;72.70
3069;DHT22;1545;51.728;8.796;2023-04-07T14:27:11;13.50;73.30
3069;DHT22;1545;51.728;8.796;2023-04-07T14:29:38;13.60;74.10
3069;DHT22;1545;51.728;8.796;2023-04-07T14:32:03;13.60;73.60
3069;DHT22;1545;51.728;8.796;2023-04-07T14:34:29;13.50;75.10
3069;DHT22;1545;51.728;8.796;2023-04-07T14:36:56;13.40;75.20
3069;DHT22;1545;51.728;8.796;2023-04-07T14:39:23;13.40;75.60
3069;DHT22;1545;51.728;8.796;2023-04-07T14:41:49;13.40;76.20
3069;DHT22;1545;51.728;8.796;2023-04-07T14:44:15;13.20;75.40
3069;DHT22;1545;51.728;8.796;2023-04-07T14:46:41;13.10;75.70
3069;DHT22;1545;51.728;8.796;2023-04-07T14:49:07;13.00;74.60
3069;DHT22;1545;51.728;8.796;2023-04-07T14:51:32;12.80;75.80
3069;DHT22;1545;51.728;8.796;2023-04-07T14:53:58;12.80;76.70
3069;DHT22;1545;51.728;8.796;2023-04-07T14:56:24;13.00;76.20
3069;DHT22;1545;51.728;8.796;2023-04-07T14:58:50;13.10;76.60
3069;DHT22;1545;51.728;8.796;2023-04-07T15:01:16;13.30;76.40
3069;DHT22;1545;51.728;8.796;2023-04-07T15:03:42;13.40;76.50
3069;DHT22;1545;51.728;8.796;2023-04-07T15:06:09;13.60;75.60
3069;DHT22;1545;51.728;8.796;2023-04-07T15:08:35;13.60;75.40
3069;DHT22;1545;51.728;8.796;2023-04-07T15:11:03;13.70;75.30
3069;DHT22;1545;51.728;8.796;2023-04-07T15:13:31;13.80;75.00
3069;DHT22;1545;51.728;8.796;2023-04-07T15:16:11;13.90;74.60
3069;DHT22;1545;51.728;8.796;2023-04-07T15:18:39;14.00;73.90
3069;DHT22;1545;51.728;8.796;2023-04-07T15:21:07;14.00;73.90
3069;DHT22;1545;51.728;8.796;2023-04-07T15:23:33;14.20;73.70
3069;DHT22;1545;51.728;8.796;2023-04-07T15:25:58;14.30;73.80
3069;DHT22;1545;51.728;8.796;2023-04-07T15:28:24;14.40;72.80
3069;DHT22;1545;51.728;8.796;2023-04-07T15:30:50;14.50;71.70
3069;DHT22;1545;51.728;8.796;2023-04-07T15:33:15;14.30;72.30
3069;DHT22;1545;51.728;8.796;2023-04-07T15:35:41;13.90;73.80
3069;DHT22;1545;51.728;8.796;2023-04-07T15:38:07;13.70;74.40
3069;DHT22;1545;51.728;8.796;2023-04-07T15:40:37;13.70;74.80
3069;DHT22;1545;51.728;8.796;2023-04-07T15:43:02;13.40;76.20
3069;DHT22;1545;51.728;8.796;2023-04-07T15:45:29;13.30;75.70
3069;DHT22;1545;51.728;8.796;2023-04-07T15:47:54;13.20;76.00
3069;DHT22;1545;51.728;8.796;2023-04-07T15:50:20;13.40;76.40
3069;DHT22;1545;51.728;8.796;2023-04-07T15:52:46;13.60;75.00
3069;DHT22;1545;51.728;8.796;2023-04-07T15:55:11;13.80;74.80
3069;DHT22;1545;51.728;8.796;2023-04-07T15:57:37;13.80;74.80
3069;DHT22;1545;51.728;8.796;2023-04-07T16:00:03;13.70;75.10
3069;DHT22;1545;51.728;8.796;2023-04-07T16:02:28;13.60;74.60
3069;DHT22;1545;51.728;8.796;2023-04-07T16:04:54;13.50;75.50
3069;DHT22;1545;51.728;8.796;2023-04-07T16:07:20;13.40;75.60
3069;DHT22;1545;51.728;8.796;2023-04-07T16:09:45;13.20;76.10
3069;DHT22;1545;51.728;8.796;2023-04-07T16:12:11;13.20;75.80
3069;DHT22;1545;51.728;8.796;2023-04-07T16:14:36;13.20;76.30
3069;DHT22;1545;51.728;8.796;2023-04-07T16:17:02;13.30;76.60
3069;DHT22;1545;51.728;8.796;2023-04-07T16:19:27;13.40;76.50
3069;DHT22;1545;51.728;8.796;2023-04-07T16:21:53;13.40;76.20